createdAt,value
2023-03-12T12:24:04.573Z,28.76
2023-03-12T12:25:24.957Z,28.38
2023-03-12T12:26:49.745Z,28.14
2023-03-12T12:28:00.102Z,28.22
2023-03-12T12:29:17.216Z,29.45
2023-03-12T12:30:34.452Z,28.94
2023-03-12T12:32:20.964Z,28.21
2023-03-12T12:33:49.863Z,28.99
2023-03-12T12:35:03.410Z,28.80
2023-03-12T12:36:08.082Z,28.70
2023-03-12T12:37:39.954Z,28.32
2023-03-12T12:38:41.536Z,28.65
2023-03-12T12:40:00.050Z,27.80
2023-03-12T12:41:11.493Z,28.79
2023-03-12T12:42:22.930Z,28.94
2023-03-12T12:43:32.923Z,29.16
2023-03-12T12:44:43.350Z,29.21
2023-03-12T12:45:48.503Z,29.46
2023-03-12T12:46:56.552Z,29.20
2023-03-12T12:48:08.190Z,28.73
2023-03-12T12:49:14.886Z,28.86
2023-03-12T12:50:24.817Z,29.14
2023-03-12T12:51:36.394Z,29.34
2023-03-12T12:52:38.510Z,28.83
2023-03-12T12:53:57.271Z,28.13
2023-03-12T12:55:35.267Z,28.11
2023-03-12T12:56:51.000Z,28.75
2023-03-12T12:58:02.484Z,28.24
2023-03-12T12:59:37.727Z,28.06
2023-03-12T13:00:48.049Z,28.25
2023-03-12T13:01:54.274Z,28.30
2023-03-12T13:02:57.786Z,28.52
2023-03-12T13:04:09.541Z,28.06
2023-03-12T13:05:37.457Z,27.87
2023-03-12T13:06:57.768Z,27.86
2023-03-12T13:07:59.410Z,28.35
2023-03-12T13:09:14.389Z,28.32
2023-03-12T13:10:36.129Z,28.90
2023-03-12T13:11:45.297Z,28.99
2023-03-12T13:12:52.709Z,30.26
2023-03-12T13:14:03.388Z,30.01
2023-03-12T13:15:30.860Z,29.49
2023-03-12T13:16:36.960Z,28.72
2023-03-12T13:18:23.589Z,28.47
2023-03-12T13:19:27.531Z,28.53
2023-03-12T13:20:37.856Z,28.10
2023-03-12T13:21:46.445Z,27.68
2023-03-12T13:23:29.992Z,28.24
2023-03-12T13:24:31.594Z,27.71
2023-03-12T13:26:06.387Z,28.49
2023-03-12T13:27:29.843Z,28.34
2023-03-12T13:28:35.202Z,28.54
2023-03-12T13:29:40.591Z,28.90
2023-03-12T13:30:47.500Z,29.19
2023-03-12T13:31:49.362Z,28.50
2023-03-12T13:32:50.981Z,28.71
2023-03-12T13:34:08.026Z,28.32
2023-03-12T13:35:15.700Z,28.41
2023-03-12T13:36:17.311Z,28.13
2023-03-12T13:37:28.103Z,28.48
2023-03-12T13:38:51.934Z,28.03
2023-03-12T13:39:53.658Z,28.00
2023-03-12T13:40:59.167Z,27.32
2023-03-12T13:42:21.572Z,27.52
2023-03-12T13:43:38.170Z,26.90
2023-03-12T13:44:40.283Z,27.11
2023-03-12T13:45:47.795Z,29.82
2023-03-12T13:47:12.129Z,26.92
2023-03-12T13:48:20.795Z,25.97
2023-03-12T13:49:24.120Z,26.05
2023-03-12T13:50:27.774Z,26.03
2023-03-12T13:51:29.761Z,25.69
2023-03-12T13:52:54.448Z,25.55
2023-03-12T13:54:01.266Z,25.21
2023-03-12T13:55:15.067Z,24.79
2023-03-12T13:56:21.244Z,25.28
2023-03-12T13:57:33.946Z,24.85
2023-03-12T13:58:50.311Z,24.92
2023-03-12T13:59:53.106Z,24.85
2023-03-12T14:01:07.484Z,25.19
2023-03-12T14:02:24.877Z,25.18
2023-03-12T14:03:56.811Z,25.15
2023-03-12T14:05:09.144Z,24.55
2023-03-12T14:06:14.604Z,24.43
2023-03-12T14:08:20.408Z,24.41
2023-03-12T14:09:45.774Z,23.97
2023-03-12T14:11:07.912Z,23.85
2023-03-12T14:12:20.651Z,22.66
2023-03-12T14:13:34.460Z,23.57
2023-03-12T14:14:44.945Z,23.22
2023-03-12T14:16:16.798Z,22.72
2023-03-12T14:17:23.620Z,23.64
2023-03-12T14:18:30.100Z,23.49
2023-03-12T14:19:35.250Z,23.21
2023-03-12T14:20:38.741Z,23.23
2023-03-12T14:21:44.493Z,22.78
2023-03-12T14:22:54.176Z,22.59
2023-03-12T14:23:58.360Z,22.63
2023-03-12T14:25:12.620Z,21.93
2023-03-12T14:26:31.874Z,22.14
2023-03-12T14:27:34.227Z,22.55
2023-03-12T14:28:41.346Z,22.16
2023-03-12T14:29:55.626Z,23.04
2023-03-12T14:31:13.087Z,23.19
2023-03-12T14:32:20.556Z,23.39
2023-03-12T14:33:24.613Z,22.95
2023-03-12T14:34:30.524Z,22.93
2023-03-12T14:36:01.869Z,23.19
2023-03-12T14:37:37.108Z,22.78
2023-03-12T14:38:44.568Z,22.99
2023-03-12T14:40:01.878Z,23.17
2023-03-12T14:41:18.301Z,23.30
2023-03-12T14:42:31.571Z,23.64
2023-03-12T14:43:35.101Z,23.16
2023-03-12T14:44:38.862Z,23.60
2023-03-12T14:45:40.709Z,23.81
2023-03-12T14:46:55.083Z,23.55
2023-03-12T14:47:58.399Z,23.80
2023-03-12T14:49:00.004Z,23.47
2023-03-12T14:50:01.664Z,23.75
2023-03-12T14:51:06.298Z,23.64
2023-03-12T14:52:12.197Z,23.67
2023-03-12T14:53:21.522Z,24.22
2023-03-12T14:54:26.365Z,23.69
2023-03-12T14:55:28.027Z,24.10
2023-03-12T14:56:32.200Z,24.01
2023-03-12T14:57:34.676Z,22.98
2023-03-12T14:58:44.198Z,22.64
2023-03-12T14:59:55.878Z,21.59
2023-03-12T15:01:04.748Z,20.30
2023-03-12T15:02:15.368Z,20.18
2023-03-12T15:03:17.785Z,19.59
2023-03-12T15:04:23.919Z,19.78
2023-03-12T15:05:25.654Z,20.42
2023-03-12T15:06:45.704Z,22.59
2023-03-12T15:07:50.181Z,23.06
2023-03-12T15:08:51.839Z,22.41
2023-03-12T15:09:54.074Z,21.80
2023-03-12T15:10:58.903Z,22.01
2023-03-12T15:12:17.119Z,21.94
2023-03-12T15:13:20.635Z,21.99
2023-03-12T15:14:24.781Z,21.87
2023-03-12T15:15:48.058Z,21.72
2023-03-12T15:16:51.178Z,21.73
2023-03-12T15:17:53.123Z,21.30
2023-03-12T15:18:55.706Z,21.26
2023-03-12T15:19:58.232Z,20.71
2023-03-12T15:21:02.522Z,20.81
2023-03-12T15:22:04.611Z,20.58
2023-03-12T15:23:09.868Z,20.81
2023-03-12T15:24:13.909Z,20.28
2023-03-12T15:25:29.635Z,21.17
2023-03-12T15:26:34.094Z,21.21
2023-03-12T15:27:35.691Z,20.42
2023-03-12T15:28:37.761Z,20.74
2023-03-12T15:29:41.704Z,21.59
2023-03-12T15:30:44.028Z,20.93
2023-03-12T15:31:48.358Z,21.29
2023-03-12T15:33:11.036Z,20.53
2023-03-12T15:34:26.456Z,20.18
2023-03-12T15:35:28.372Z,19.95
2023-03-12T15:36:32.781Z,20.32
2023-03-12T15:37:35.654Z,20.80
2023-03-12T15:38:37.237Z,20.76
2023-03-12T15:39:38.997Z,20.13
2023-03-12T15:40:40.872Z,20.46
2023-03-12T15:41:46.553Z,21.03
2023-03-12T15:42:49.433Z,26.28
2023-03-12T15:43:59.673Z,21.58
2023-03-12T15:45:02.820Z,21.75
2023-03-12T15:46:06.893Z,21.83
2023-03-12T15:47:18.374Z,22.02
2023-03-12T15:48:31.986Z,23.40
2023-03-12T15:49:37.675Z,22.82
2023-03-12T15:50:44.294Z,22.30
2023-03-12T15:52:02.941Z,25.57
2023-03-12T15:53:13.660Z,23.42
2023-03-12T15:54:18.374Z,23.20
2023-03-12T15:55:27.036Z,23.11
2023-03-12T15:56:31.694Z,23.03
2023-03-12T15:57:35.274Z,22.99
2023-03-12T15:58:39.560Z,23.98
2023-03-12T15:59:41.233Z,23.22
2023-03-12T16:00:46.147Z,25.29
2023-03-12T16:01:50.704Z,23.86
2023-03-12T16:02:58.556Z,23.49
2023-03-12T16:04:00.325Z,23.88
2023-03-12T16:05:01.979Z,23.67
2023-03-12T16:06:04.082Z,23.57
2023-03-12T16:07:12.145Z,23.67
2023-03-12T16:08:16.398Z,23.25
2023-03-12T16:09:25.084Z,23.70
2023-03-12T16:10:27.433Z,23.65
2023-03-12T16:11:31.853Z,24.45
2023-03-12T16:12:34.042Z,24.42
2023-03-12T16:13:35.744Z,24.64
2023-03-12T16:14:38.164Z,24.05
2023-03-12T16:15:40.423Z,24.37
2023-03-12T16:16:42.143Z,24.40
2023-03-12T16:17:43.995Z,24.89
2023-03-12T16:18:45.640Z,24.96
2023-03-12T16:19:47.453Z,25.29
2023-03-12T16:20:51.284Z,24.71
2023-03-12T16:21:52.942Z,24.93
2023-03-12T16:22:55.064Z,35.82
2023-03-12T16:23:56.634Z,29.12
2023-03-12T16:24:58.200Z,30.81
2023-03-12T16:26:00.332Z,26.79
2023-03-12T16:27:02.643Z,26.36
2023-03-12T16:28:06.394Z,30.55
2023-03-12T16:29:14.333Z,25.67
2023-03-12T16:30:24.762Z,25.43
2023-03-12T16:31:26.512Z,25.60
2023-03-12T16:32:28.249Z,25.61
2023-03-12T16:33:29.830Z,25.48
2023-03-12T16:34:31.473Z,25.92
2023-03-12T16:35:33.702Z,25.36
2023-03-12T16:36:35.317Z,25.69
2023-03-12T16:37:36.910Z,26.10
2023-03-12T16:38:38.533Z,25.12
2023-03-12T16:39:40.570Z,26.09
2023-03-12T16:40:51.236Z,25.27
2023-03-12T16:41:52.873Z,25.52
2023-03-12T16:42:54.822Z,25.48
2023-03-12T16:43:56.839Z,26.12
2023-03-12T16:44:58.890Z,26.26
2023-03-12T16:46:00.796Z,26.02
2023-03-12T16:47:02.598Z,26.16
2023-03-12T16:48:06.445Z,26.83
2023-03-12T16:49:14.540Z,25.75
2023-03-12T16:50:22.314Z,25.42
2023-03-12T16:51:24.569Z,26.06
2023-03-12T16:52:26.237Z,27.31
2023-03-12T16:53:28.166Z,27.07
2023-03-12T16:54:29.780Z,27.15
2023-03-12T16:55:44.269Z,27.20
2023-03-12T16:56:48.390Z,27.13
2023-03-12T16:57:56.650Z,27.78
2023-03-12T16:59:05.286Z,26.84
2023-03-12T17:00:12.029Z,26.95
2023-03-12T17:01:16.431Z,26.18
2023-03-12T17:02:19.104Z,26.90
2023-03-12T17:03:41.883Z,27.06
2023-03-12T17:04:43.797Z,26.59
2023-03-12T17:05:45.520Z,27.09
2023-03-12T17:06:47.239Z,27.71
2023-03-12T17:07:48.875Z,27.61
2023-03-12T17:08:52.124Z,27.55
2023-03-12T17:09:53.749Z,27.08
2023-03-12T17:10:57.445Z,27.50
2023-03-12T17:11:59.145Z,28.06
2023-03-12T17:13:00.852Z,27.49
2023-03-12T17:14:10.265Z,27.89
2023-03-12T17:15:26.245Z,27.62
2023-03-12T17:16:28.339Z,27.44
2023-03-12T17:17:30.397Z,28.15
2023-03-12T17:18:31.999Z,28.33
2023-03-12T17:19:33.637Z,31.10
2023-03-12T17:20:35.264Z,28.63
2023-03-12T17:21:37.102Z,29.22
2023-03-12T17:22:38.730Z,29.18
2023-03-12T17:23:40.627Z,28.71
2023-03-12T17:24:42.293Z,29.30
2023-03-12T17:25:44.902Z,29.24
2023-03-12T17:26:46.727Z,28.54
2023-03-12T17:27:48.314Z,28.22
2023-03-12T17:28:50.031Z,28.54
2023-03-12T17:29:51.649Z,29.74
2023-03-12T17:30:53.423Z,29.36
2023-03-12T17:31:55.210Z,27.99
2023-03-12T17:33:15.241Z,28.67
2023-03-12T17:34:16.858Z,28.47
2023-03-12T17:35:20.252Z,29.24
2023-03-12T17:36:21.952Z,28.57
2023-03-12T17:37:23.627Z,29.80
2023-03-12T17:38:25.778Z,28.72
2023-03-12T17:39:27.430Z,28.83
2023-03-12T17:40:29.798Z,30.05
2023-03-12T17:41:32.294Z,29.20
2023-03-12T17:42:35.842Z,29.55
2023-03-12T17:43:37.485Z,30.52
2023-03-12T17:44:39.130Z,29.33
2023-03-12T17:45:40.760Z,30.13
2023-03-12T17:46:56.652Z,30.11
2023-03-12T17:48:00.491Z,29.79
2023-03-12T17:49:02.089Z,30.94
2023-03-12T17:50:05.967Z,31.16
2023-03-12T17:51:11.330Z,29.96
2023-03-12T17:52:12.984Z,30.39
2023-03-12T17:53:14.976Z,29.93
2023-03-12T17:54:17.017Z,30.65
2023-03-12T17:55:18.631Z,29.13
2023-03-12T17:56:20.280Z,30.56
2023-03-12T17:57:21.923Z,30.84
2023-03-12T17:58:23.616Z,30.69
2023-03-12T17:59:25.291Z,31.23
2023-03-12T18:00:26.902Z,31.80
2023-03-12T18:01:28.466Z,31.31
2023-03-12T18:02:30.076Z,32.26
2023-03-12T18:03:35.960Z,32.10
2023-03-12T18:04:37.787Z,32.25
2023-03-12T18:05:39.450Z,32.63
2023-03-12T18:06:41.099Z,32.62
2023-03-12T18:07:42.797Z,32.26
2023-03-12T18:08:44.360Z,32.27
2023-03-12T18:09:45.971Z,32.27
2023-03-12T18:10:48.426Z,31.27
2023-03-12T18:11:50.063Z,31.61
2023-03-12T18:12:51.713Z,31.73
2023-03-12T18:13:53.410Z,31.70
2023-03-12T18:14:54.999Z,31.89
2023-03-12T18:15:58.337Z,31.54
2023-03-12T18:17:00.075Z,31.05
2023-03-12T18:18:01.704Z,32.29
2023-03-12T18:19:03.632Z,32.64
2023-03-12T18:20:06.049Z,32.96
2023-03-12T18:21:07.774Z,33.65
2023-03-12T18:22:09.698Z,33.22
2023-03-12T18:23:11.314Z,33.57
2023-03-12T18:24:14.421Z,33.98
2023-03-12T18:25:16.583Z,34.36
2023-03-12T18:26:18.238Z,33.55
2023-03-12T18:27:19.861Z,34.14
2023-03-12T18:28:21.708Z,34.73
2023-03-12T18:29:23.286Z,35.07
2023-03-12T18:30:24.934Z,35.07
2023-03-12T18:31:26.960Z,35.74
2023-03-12T18:32:29.161Z,36.02
2023-03-12T18:33:30.856Z,36.28
2023-03-12T18:34:32.615Z,36.07
2023-03-12T18:35:34.330Z,35.17
2023-03-12T18:36:35.973Z,36.13
2023-03-12T18:37:37.582Z,37.24
2023-03-12T18:38:39.218Z,36.94
2023-03-12T18:39:40.846Z,37.42
2023-03-12T18:40:42.498Z,37.94
2023-03-12T18:41:44.189Z,38.01
2023-03-12T18:42:45.949Z,38.63
2023-03-12T18:43:47.565Z,38.92
2023-03-12T18:44:49.141Z,38.90
2023-03-12T18:45:50.779Z,39.12
2023-03-12T18:46:52.480Z,39.15
2023-03-12T18:47:54.273Z,38.88
2023-03-12T18:48:55.885Z,36.97
2023-03-12T18:49:57.470Z,36.91
2023-03-12T18:50:59.089Z,37.27
2023-03-12T18:52:00.688Z,38.33
2023-03-12T18:53:02.345Z,38.72
2023-03-12T18:54:04.142Z,38.81
2023-03-12T18:55:05.963Z,39.22
2023-03-12T18:56:07.968Z,39.26
2023-03-12T18:57:09.638Z,39.07
2023-03-12T18:58:11.296Z,39.41
2023-03-12T18:59:13.166Z,38.84
2023-03-12T19:00:16.806Z,38.95
2023-03-12T19:01:18.486Z,39.80
2023-03-12T19:02:20.229Z,37.50
2023-03-12T19:03:22.987Z,38.61
2023-03-12T19:04:24.822Z,38.10
2023-03-12T19:05:26.432Z,35.27
2023-03-12T19:06:29.661Z,37.68
2023-03-12T19:07:36.579Z,36.55
2023-03-12T19:08:40.463Z,34.90
2023-03-12T19:09:42.144Z,33.92
2023-03-12T19:10:44.087Z,37.13
2023-03-12T19:11:49.487Z,37.97
2023-03-12T19:12:53.696Z,36.87
2023-03-12T19:13:55.429Z,37.66
2023-03-12T19:14:57.074Z,38.28
2023-03-12T19:16:00.892Z,39.31
2023-03-12T19:17:02.684Z,38.12
2023-03-12T19:18:04.555Z,36.85
2023-03-12T19:19:06.109Z,38.13
2023-03-12T19:20:08.162Z,39.17
2023-03-12T19:21:09.944Z,39.78
2023-03-12T19:22:11.609Z,39.37
2023-03-12T19:23:13.330Z,38.10
2023-03-12T19:24:14.940Z,38.07
2023-03-12T19:25:16.678Z,40.54
2023-03-12T19:26:18.254Z,40.61
2023-03-12T19:27:19.836Z,41.49
2023-03-12T19:28:21.809Z,40.78
2023-03-12T19:29:23.398Z,40.40
2023-03-12T19:30:25.067Z,40.84
2023-03-12T19:31:26.796Z,41.23
2023-03-12T19:32:40.671Z,41.46
2023-03-12T19:33:44.827Z,40.21
2023-03-12T19:34:46.433Z,41.46
2023-03-12T19:35:48.145Z,41.33
2023-03-12T19:36:49.754Z,41.01
2023-03-12T19:37:51.578Z,41.72
2023-03-12T19:38:53.256Z,41.11
2023-03-12T19:39:54.863Z,40.83
2023-03-12T19:40:58.307Z,40.61
2023-03-12T19:41:59.923Z,40.36
2023-03-12T19:43:02.309Z,41.59
2023-03-12T19:44:04.060Z,40.98
2023-03-12T19:45:06.230Z,41.71
2023-03-12T19:46:08.089Z,41.34
2023-03-12T19:47:09.804Z,41.76
2023-03-12T19:48:13.067Z,41.71
2023-03-12T19:49:14.824Z,42.53
2023-03-12T19:50:16.498Z,42.90
2023-03-12T19:51:18.101Z,42.09
2023-03-12T19:52:19.716Z,42.57
2023-03-12T19:53:21.938Z,41.58
2023-03-12T19:54:23.670Z,41.82
2023-03-12T19:55:25.358Z,41.70
2023-03-12T19:56:26.937Z,42.53
2023-03-12T19:57:28.657Z,42.97
2023-03-12T19:58:30.488Z,42.25
2023-03-12T19:59:32.201Z,41.84
2023-03-12T20:00:33.952Z,41.81
2023-03-12T20:01:35.599Z,41.81
2023-03-12T20:02:37.766Z,41.97
2023-03-12T20:03:40.803Z,42.08
2023-03-12T20:04:43.988Z,42.40
2023-03-12T20:05:45.924Z,43.81
2023-03-12T20:06:47.627Z,43.11
2023-03-12T20:07:49.208Z,43.68
2023-03-12T20:08:50.827Z,43.42
2023-03-12T20:09:52.703Z,44.10
2023-03-12T20:11:01.712Z,43.76
2023-03-12T20:12:03.417Z,42.94
2023-03-12T20:13:05.192Z,44.17
2023-03-12T20:14:06.775Z,44.22
2023-03-12T20:15:09.095Z,44.26
2023-03-12T20:16:10.700Z,43.99
2023-03-12T20:17:12.476Z,43.18
2023-03-12T20:18:15.050Z,44.18
2023-03-12T20:19:16.779Z,43.79
2023-03-12T20:20:18.685Z,44.06
2023-03-12T20:21:20.239Z,44.30
2023-03-12T20:22:23.121Z,44.05
2023-03-12T20:23:24.845Z,45.15
2023-03-12T20:24:26.423Z,44.23
2023-03-12T20:25:28.134Z,44.36
2023-03-12T20:26:29.819Z,44.73
2023-03-12T20:27:32.283Z,44.85
2023-03-12T20:28:33.966Z,44.33
2023-03-12T20:29:35.632Z,45.21
2023-03-12T20:30:38.353Z,44.09
2023-03-12T20:31:42.548Z,44.85
2023-03-12T20:32:44.307Z,44.31
2023-03-12T20:33:45.904Z,45.23
2023-03-12T20:34:47.485Z,45.34
2023-03-12T20:35:50.397Z,45.44
2023-03-12T20:36:52.175Z,46.06
2023-03-12T20:37:53.759Z,45.83
2023-03-12T20:38:55.314Z,46.95
2023-03-12T20:39:56.969Z,46.38
2023-03-12T20:40:59.935Z,46.98
2023-03-12T20:42:01.611Z,46.36
2023-03-12T20:43:04.292Z,45.88
2023-03-12T20:44:05.957Z,45.26
2023-03-12T20:45:08.092Z,44.58
2023-03-12T20:46:10.309Z,45.10
2023-03-12T20:47:11.968Z,44.88
2023-03-12T20:48:13.609Z,45.13
2023-03-12T20:49:15.228Z,45.04
2023-03-12T20:50:16.910Z,44.43
2023-03-12T20:51:18.574Z,45.47
2023-03-12T20:52:20.248Z,45.52
2023-03-12T20:53:21.902Z,45.52
2023-03-12T20:54:23.503Z,45.49
2023-03-12T20:55:25.105Z,45.68
2023-03-12T20:56:26.897Z,45.92
2023-03-12T20:57:28.683Z,46.04
2023-03-12T20:58:30.243Z,46.29
2023-03-12T20:59:31.822Z,46.71
2023-03-12T21:00:33.512Z,45.56
2023-03-12T21:01:35.346Z,45.08
2023-03-12T21:02:37.066Z,45.83
2023-03-12T21:03:38.780Z,46.21
2023-03-12T21:04:41.323Z,45.05
2023-03-12T21:05:42.962Z,45.55
2023-03-12T21:06:44.671Z,46.04
2023-03-12T21:07:46.309Z,46.43
2023-03-12T21:08:48.132Z,45.85
2023-03-12T21:09:49.866Z,46.55
2023-03-12T21:10:52.042Z,47.37
2023-03-12T21:11:53.606Z,46.61
2023-03-12T21:12:55.208Z,47.71
2023-03-12T21:13:56.961Z,47.11
2023-03-12T21:14:58.564Z,47.25
2023-03-12T21:16:00.171Z,47.68
2023-03-12T21:17:01.845Z,47.42
2023-03-12T21:18:03.574Z,47.71
2023-03-12T21:19:05.554Z,47.29
2023-03-12T21:20:09.984Z,48.24
2023-03-12T21:21:11.577Z,47.72
2023-03-12T21:22:13.192Z,47.59
2023-03-12T21:23:14.849Z,48.13
2023-03-12T21:24:16.553Z,47.74
2023-03-12T21:25:18.398Z,47.75
2023-03-12T21:26:20.052Z,48.38
2023-03-12T21:27:21.670Z,48.81
2023-03-12T21:28:23.253Z,48.12
2023-03-12T21:29:24.818Z,47.92
2023-03-12T21:30:26.526Z,47.86
2023-03-12T21:31:28.098Z,47.64
2023-03-12T21:32:29.701Z,48.04
2023-03-12T21:33:31.366Z,47.43
2023-03-12T21:34:32.996Z,47.81
2023-03-12T21:35:34.807Z,47.03
2023-03-12T21:36:36.425Z,47.55
2023-03-12T21:37:38.015Z,47.25
2023-03-12T21:38:40.769Z,46.48
2023-03-12T21:39:42.804Z,46.88
2023-03-12T21:40:44.616Z,46.61
2023-03-12T21:41:46.185Z,47.18
2023-03-12T21:42:47.813Z,47.76
2023-03-12T21:43:49.472Z,47.11
2023-03-12T21:44:51.158Z,46.60
2023-03-12T21:45:52.903Z,46.04
2023-03-12T21:46:54.488Z,46.12
2023-03-12T21:47:56.095Z,46.67
2023-03-12T21:48:58.090Z,45.90
2023-03-12T21:49:59.786Z,46.27
2023-03-12T21:51:06.857Z,46.35
2023-03-12T21:52:08.457Z,47.28
2023-03-12T21:53:22.753Z,47.26
2023-03-12T21:54:30.530Z,46.17
2023-03-12T21:55:32.120Z,46.84
2023-03-12T21:56:33.790Z,46.28
2023-03-12T21:57:35.429Z,46.38
2023-03-12T21:58:37.734Z,47.09
2023-03-12T21:59:39.351Z,46.89
2023-03-12T22:00:40.950Z,47.61
2023-03-12T22:01:42.547Z,46.43
2023-03-12T22:02:45.834Z,46.78
2023-03-12T22:03:47.526Z,47.37
2023-03-12T22:04:49.783Z,46.63
2023-03-12T22:05:51.418Z,47.80
2023-03-12T22:06:53.249Z,47.48
2023-03-12T22:07:54.855Z,47.65
2023-03-12T22:08:56.430Z,47.71
2023-03-12T22:09:58.094Z,48.49
2023-03-12T22:11:00.088Z,49.13
2023-03-12T22:12:04.364Z,49.11
2023-03-12T22:13:06.056Z,49.50
2023-03-12T22:14:07.945Z,49.02
2023-03-12T22:15:09.993Z,49.47
2023-03-12T22:16:13.679Z,48.51
2023-03-12T22:17:15.304Z,48.45
2023-03-12T22:18:16.860Z,49.16
2023-03-12T22:19:18.450Z,49.79
2023-03-12T22:20:20.114Z,49.71
2023-03-12T22:21:23.546Z,49.97
2023-03-12T22:22:25.178Z,49.35
2023-03-12T22:23:27.590Z,49.76
2023-03-12T22:24:29.264Z,49.84
2023-03-12T22:25:30.874Z,49.72
2023-03-12T22:26:32.456Z,49.78
2023-03-12T22:27:34.067Z,50.27
2023-03-12T22:28:36.201Z,49.87
2023-03-12T22:29:37.796Z,49.16
2023-03-12T22:30:39.377Z,49.38
2023-03-12T22:31:41.026Z,49.50
2023-03-12T22:32:42.646Z,49.54
2023-03-12T22:33:44.793Z,48.90
2023-03-12T22:34:46.382Z,50.12
2023-03-12T22:35:48.882Z,49.89
2023-03-12T22:36:50.542Z,49.09
2023-03-12T22:37:52.183Z,49.67
2023-03-12T22:38:53.878Z,49.43
2023-03-12T22:39:55.479Z,50.19
2023-03-12T22:40:57.036Z,50.46
2023-03-12T22:41:58.625Z,50.09
2023-03-12T22:43:00.361Z,50.53
2023-03-12T22:44:05.600Z,50.61
2023-03-12T22:45:08.096Z,49.51
2023-03-12T22:46:09.771Z,49.54
2023-03-12T22:47:11.436Z,49.54
2023-03-12T22:48:13.058Z,48.71
2023-03-12T22:49:15.032Z,49.04
2023-03-12T22:50:16.763Z,49.52
2023-03-12T22:51:18.823Z,48.30
2023-03-12T22:52:20.457Z,48.47
2023-03-12T22:53:22.604Z,47.91
2023-03-12T22:54:24.157Z,48.29
2023-03-12T22:55:26.143Z,48.01
2023-03-12T22:56:27.836Z,48.29
2023-03-12T22:57:29.467Z,47.99
2023-03-12T22:58:31.286Z,45.99
2023-03-12T22:59:32.876Z,45.90
2023-03-12T23:00:34.482Z,48.00
2023-03-12T23:01:36.116Z,47.61
2023-03-12T23:02:37.746Z,47.91
2023-03-12T23:03:42.021Z,46.73
2023-03-12T23:04:43.839Z,46.86
2023-03-12T23:05:45.598Z,47.29
2023-03-12T23:06:47.214Z,48.18
2023-03-12T23:07:49.053Z,48.10
2023-03-12T23:08:51.666Z,47.04
2023-03-12T23:09:53.255Z,47.59
2023-03-12T23:10:57.658Z,47.09
2023-03-12T23:11:59.249Z,47.96
2023-03-12T23:13:00.931Z,48.10
2023-03-12T23:14:02.733Z,47.73
2023-03-12T23:15:04.612Z,48.72
2023-03-12T23:16:09.604Z,48.52
2023-03-12T23:17:11.264Z,48.58
2023-03-12T23:18:12.905Z,48.18
2023-03-12T23:19:14.591Z,47.76
2023-03-12T23:20:16.357Z,48.69
2023-03-12T23:21:20.914Z,47.71
2023-03-12T23:22:22.548Z,46.38
2023-03-12T23:23:24.223Z,46.32
2023-03-12T23:24:26.006Z,45.16
2023-03-12T23:25:27.558Z,44.85
2023-03-12T23:26:29.321Z,46.00
2023-03-12T23:27:31.537Z,46.30
2023-03-12T23:28:33.404Z,46.29
2023-03-12T23:29:35.772Z,46.62
2023-03-12T23:30:37.394Z,47.24
2023-03-12T23:31:39.168Z,47.17
2023-03-12T23:32:40.823Z,46.52
2023-03-12T23:33:43.090Z,48.16
2023-03-12T23:34:45.167Z,47.76
2023-03-12T23:36:02.066Z,48.62
2023-03-12T23:37:03.942Z,48.12
2023-03-12T23:38:05.515Z,47.59
2023-03-12T23:39:07.083Z,47.77
2023-03-12T23:40:09.469Z,48.66
2023-03-12T23:41:21.296Z,48.10
2023-03-12T23:42:22.949Z,47.75
2023-03-12T23:43:24.546Z,47.28
2023-03-12T23:44:26.241Z,47.29
2023-03-12T23:45:27.918Z,46.83
2023-03-12T23:46:30.016Z,46.26
2023-03-12T23:47:31.635Z,46.93
2023-03-12T23:48:34.497Z,46.79
2023-03-12T23:49:36.089Z,45.68
2023-03-12T23:50:37.691Z,46.89
2023-03-12T23:51:40.057Z,47.85
2023-03-12T23:52:41.621Z,46.91
2023-03-12T23:53:46.186Z,42.98
2023-03-12T23:54:47.832Z,45.11
2023-03-12T23:56:00.404Z,46.69
2023-03-12T23:57:01.998Z,43.57
2023-03-12T23:58:03.590Z,41.92
2023-03-12T23:59:07.189Z,43.06
